createdAt,value
2019-04-10T00:00:44.182Z,34.48
2019-04-10T00:03:25.699Z,34.48
2019-04-10T00:05:44.435Z,38.15
2019-04-10T00:08:13.049Z,38.95
2019-04-10T00:10:42.038Z,34.27
2019-04-10T00:13:10.697Z,35.28
2019-04-10T00:15:40.266Z,29.90
2019-04-10T00:18:09.452Z,36.53
2019-04-10T00:20:38.584Z,32.23
2019-04-10T00:23:07.273Z,34.40
2019-04-10T00:25:39.080Z,34.33
2019-04-10T00:28:08.143Z,38.05
2019-04-10T00:30:37.578Z,30.80
2019-04-10T00:33:06.570Z,34.08
2019-04-10T00:35:35.284Z,32.38
2019-04-10T00:38:05.133Z,34.13
2019-04-10T00:40:34.059Z,32.63
2019-04-10T00:43:02.985Z,31.00
2019-04-10T00:45:33.587Z,32.33
2019-04-10T00:48:02.375Z,35.90
2019-04-10T00:50:31.402Z,39.23
2019-04-10T00:53:00.918Z,35.98
2019-04-10T00:55:30.170Z,39.13
2019-04-10T00:57:58.911Z,36.68
2019-04-10T01:00:27.468Z,35.25
2019-04-10T01:02:56.814Z,50.45
2019-04-10T01:05:25.422Z,37.28
2019-04-10T01:07:54.076Z,41.40
2019-04-10T01:10:22.763Z,58.42
2019-04-10T01:12:52.284Z,48.92
2019-04-10T01:15:20.916Z,63.30
2019-04-10T01:17:49.486Z,50.28
2019-04-10T01:20:18.055Z,42.03
2019-04-10T01:22:47.612Z,45.20
2019-04-10T01:25:16.571Z,43.25
2019-04-10T01:27:45.186Z,44.38
2019-04-10T01:30:14.023Z,49.70
2019-04-10T01:32:42.606Z,46.18
2019-04-10T01:35:11.418Z,47.38
2019-04-10T01:37:48.603Z,46.02
2019-04-10T01:40:10.759Z,44.90
2019-04-10T01:42:40.828Z,46.00
2019-04-10T01:45:09.892Z,46.23
2019-04-10T01:47:39.343Z,52.73
2019-04-10T01:50:09.009Z,53.52
2019-04-10T01:52:37.721Z,47.05
2019-04-10T01:55:17.219Z,57.40
2019-04-10T01:57:37.016Z,55.33
2019-04-10T02:00:08.841Z,49.23
2019-04-10T02:02:45.452Z,49.48
2019-04-10T02:05:14.458Z,55.52
2019-04-10T02:07:44.272Z,51.15
2019-04-10T02:10:14.017Z,49.77
2019-04-10T02:12:43.697Z,52.55
2019-04-10T02:15:14.503Z,56.98
2019-04-10T02:17:43.070Z,51.98
2019-04-10T02:20:12.524Z,58.65
2019-04-10T02:22:41.583Z,53.52
2019-04-10T02:25:11.581Z,51.08
2019-04-10T02:27:40.620Z,57.00
2019-04-10T02:30:12.719Z,53.10
2019-04-10T02:32:45.212Z,53.95
2019-04-10T02:35:16.968Z,51.70
2019-04-10T02:37:43.479Z,59.08
2019-04-10T02:40:13.053Z,57.45
2019-04-10T02:42:43.164Z,68.30
2019-04-10T02:45:13.118Z,60.50
2019-04-10T02:47:43.227Z,60.75
2019-04-10T02:50:14.029Z,64.40
2019-04-10T02:52:43.263Z,61.15
2019-04-10T02:55:14.442Z,63.40
2019-04-10T02:57:43.735Z,56.13
2019-04-10T03:00:14.113Z,61.37
2019-04-10T03:02:42.965Z,65.10
2019-04-10T03:05:13.419Z,62.48
2019-04-10T03:07:44.028Z,56.20
2019-04-10T03:10:24.426Z,52.08
2019-04-10T03:12:44.250Z,61.70
2019-04-10T03:15:14.839Z,58.13
2019-04-10T03:17:44.063Z,55.50
2019-04-10T03:20:14.043Z,60.80
2019-04-10T03:22:43.215Z,56.68
2019-04-10T03:25:12.865Z,65.05
2019-04-10T03:27:42.742Z,61.40
2019-04-10T03:30:13.283Z,64.77
2019-04-10T03:32:50.418Z,62.78
2019-04-10T03:35:24.845Z,62.93
2019-04-10T03:37:53.500Z,62.25
2019-04-10T03:40:22.320Z,68.67
2019-04-10T03:42:50.905Z,57.33
2019-04-10T03:45:20.233Z,64.55
2019-04-10T03:47:49.395Z,62.50
2019-04-10T03:50:18.417Z,68.02
2019-04-10T03:52:47.089Z,68.02
2019-04-10T03:55:16.654Z,68.57
2019-04-10T03:57:46.870Z,66.70
2019-04-10T04:00:16.278Z,77.78
2019-04-10T04:02:46.411Z,75.92
2019-04-10T04:05:15.381Z,68.87
2019-04-10T04:07:44.534Z,70.40
2019-04-10T04:10:13.481Z,71.05
2019-04-10T04:12:42.591Z,77.05
2019-04-10T04:15:11.514Z,75.75
2019-04-10T04:17:40.284Z,77.78
2019-04-10T04:20:09.214Z,64.82
2019-04-10T04:22:38.892Z,75.12
2019-04-10T04:25:08.668Z,75.50
2019-04-10T04:27:39.840Z,76.12
2019-04-10T04:30:10.506Z,83.58
2019-04-10T04:32:40.128Z,72.53
2019-04-10T04:35:09.190Z,76.82
2019-04-10T04:37:38.430Z,74.97
2019-04-10T04:40:08.966Z,76.55
2019-04-10T04:42:38.660Z,77.30
2019-04-10T04:45:08.750Z,77.78
2019-04-10T04:47:39.189Z,78.35
2019-04-10T04:50:09.740Z,79.92
2019-04-10T04:52:39.086Z,80.03
2019-04-10T04:55:10.057Z,75.65
2019-04-10T04:57:40.718Z,70.28
2019-04-10T05:00:10.859Z,73.25
2019-04-10T05:02:40.113Z,81.85
2019-04-10T05:05:09.631Z,76.85
2019-04-10T05:07:39.624Z,71.55
2019-04-10T05:10:09.122Z,75.70
2019-04-10T05:12:39.345Z,86.32
2019-04-10T05:15:09.582Z,76.85
2019-04-10T05:17:41.479Z,83.30
2019-04-10T05:20:11.317Z,84.92
2019-04-10T05:22:41.535Z,87.05
2019-04-10T05:25:11.217Z,76.35
2019-04-10T05:27:41.369Z,81.45
2019-04-10T05:30:11.185Z,83.85
2019-04-10T05:32:41.768Z,67.92
2019-04-10T05:35:12.753Z,70.90
2019-04-10T05:37:42.238Z,74.97
2019-04-10T05:40:11.859Z,68.95
2019-04-10T05:42:41.591Z,73.00
2019-04-10T05:45:11.386Z,68.20
2019-04-10T05:47:42.096Z,66.70
2019-04-10T05:50:13.028Z,62.05
2019-04-10T05:52:43.063Z,76.85
2019-04-10T05:55:13.918Z,66.37
2019-04-10T05:57:43.002Z,68.15
2019-04-10T06:00:13.464Z,78.15
2019-04-10T06:02:42.359Z,68.05
2019-04-10T06:05:11.252Z,58.92
2019-04-10T06:07:41.316Z,62.23
2019-04-10T06:10:11.600Z,66.55
2019-04-10T06:12:40.671Z,63.98
2019-04-10T06:15:10.701Z,59.98
2019-04-10T06:17:40.674Z,67.97
2019-04-10T06:20:11.146Z,63.00
2019-04-10T06:22:40.938Z,67.08
2019-04-10T06:25:13.500Z,64.32
2019-04-10T06:27:43.039Z,58.75
2019-04-10T06:30:12.777Z,63.55
2019-04-10T06:32:43.106Z,61.45
2019-04-10T06:35:13.783Z,64.17
2019-04-10T06:37:43.425Z,57.40
2019-04-10T06:40:18.643Z,65.08
2019-04-10T06:42:48.292Z,59.33
2019-04-10T06:45:13.445Z,62.78
2019-04-10T06:47:44.559Z,66.70
2019-04-10T06:50:14.774Z,56.55
2019-04-10T06:52:43.748Z,62.40
2019-04-10T06:55:13.280Z,103.75
2019-04-10T06:57:49.929Z,69.35
2019-04-10T07:00:17.008Z,65.08
2019-04-10T07:02:46.461Z,63.15
2019-04-10T07:05:16.446Z,74.27
2019-04-10T07:07:51.997Z,68.97
2019-04-10T07:10:26.866Z,55.98
2019-04-10T07:12:47.721Z,74.42
2019-04-10T07:15:21.217Z,76.12
2019-04-10T07:17:49.272Z,72.82
2019-04-10T07:20:19.539Z,66.07
2019-04-10T07:22:49.698Z,71.90
2019-04-10T07:25:19.539Z,77.08
2019-04-10T07:27:48.398Z,83.55
2019-04-10T07:30:17.427Z,73.47
2019-04-10T07:32:48.749Z,63.68
2019-04-10T07:35:19.679Z,73.02
2019-04-10T07:37:51.632Z,65.87
2019-04-10T07:40:18.503Z,67.00
2019-04-10T07:42:48.571Z,73.17
2019-04-10T07:45:17.772Z,64.47
2019-04-10T07:47:48.205Z,73.30
2019-04-10T07:50:18.170Z,64.12
2019-04-10T07:52:47.881Z,70.30
2019-04-10T07:55:16.974Z,67.03
2019-04-10T07:57:48.760Z,73.05
2019-04-10T08:00:18.058Z,61.23
2019-04-10T08:02:46.964Z,72.70
2019-04-10T08:05:16.655Z,64.40
2019-04-10T08:07:45.556Z,80.62
2019-04-10T08:10:14.332Z,71.77
2019-04-10T08:12:50.027Z,66.00
2019-04-10T08:15:13.686Z,81.20
2019-04-10T08:17:42.356Z,73.52
2019-04-10T08:20:11.879Z,64.40
2019-04-10T08:22:40.714Z,68.92
2019-04-10T08:25:10.787Z,63.40
2019-04-10T08:27:39.815Z,62.00
2019-04-10T08:30:10.980Z,71.45
2019-04-10T08:32:53.400Z,60.35
2019-04-10T08:35:13.202Z,64.15
2019-04-10T08:37:43.027Z,62.48
2019-04-10T08:40:13.430Z,57.13
2019-04-10T08:42:45.000Z,49.40
2019-04-10T08:45:13.487Z,60.50
2019-04-10T08:47:42.326Z,51.45
2019-04-10T08:50:11.887Z,49.42
2019-04-10T08:52:41.140Z,55.98
2019-04-10T08:55:10.526Z,52.67
2019-04-10T08:57:39.786Z,51.35
2019-04-10T09:00:10.194Z,45.80
2019-04-10T09:02:40.157Z,51.23
2019-04-10T09:05:09.819Z,43.23
2019-04-10T09:07:40.097Z,45.80
2019-04-10T09:10:10.241Z,47.85
2019-04-10T09:12:39.511Z,51.90
2019-04-10T09:15:09.772Z,41.60
2019-04-10T09:17:39.560Z,45.45
2019-04-10T09:20:10.874Z,54.40
2019-04-10T09:23:05.781Z,73.60
2019-04-10T09:25:13.460Z,51.75
2019-04-10T09:27:42.895Z,51.85
2019-04-10T09:30:13.894Z,49.35
2019-04-10T09:32:44.325Z,44.65
2019-04-10T09:35:14.126Z,45.63
2019-04-10T09:37:43.085Z,35.60
2019-04-10T09:40:12.067Z,42.62
2019-04-10T09:42:41.738Z,46.10
2019-04-10T09:45:11.611Z,47.20
2019-04-10T09:47:41.677Z,48.68
2019-04-10T09:50:11.036Z,46.60
2019-04-10T09:52:39.937Z,41.80
2019-04-10T09:55:09.692Z,37.42
2019-04-10T09:57:38.829Z,40.63
2019-04-10T10:00:10.561Z,45.20
2019-04-10T10:02:40.014Z,41.23
2019-04-10T10:05:08.885Z,41.20
2019-04-10T10:07:38.972Z,43.05
2019-04-10T10:10:09.174Z,50.17
2019-04-10T10:12:38.710Z,43.42
2019-04-10T10:15:11.414Z,38.33
2019-04-10T10:17:41.153Z,40.52
2019-04-10T10:20:11.447Z,44.18
2019-04-10T10:22:41.130Z,48.87
2019-04-10T10:25:11.197Z,37.93
2019-04-10T10:27:40.761Z,41.55
2019-04-10T10:30:11.573Z,40.40
2019-04-10T10:32:42.145Z,41.23
2019-04-10T10:35:11.472Z,41.08
2019-04-10T10:37:40.995Z,39.73
2019-04-10T10:40:11.667Z,69.37
2019-04-10T10:42:41.428Z,41.60
2019-04-10T10:45:12.370Z,41.92
2019-04-10T10:47:41.326Z,49.15
2019-04-10T10:50:11.439Z,38.78
2019-04-10T10:52:40.462Z,37.85
2019-04-10T10:55:09.850Z,42.43
2019-04-10T10:57:39.655Z,40.33
2019-04-10T11:00:11.911Z,33.73
2019-04-10T11:02:40.085Z,38.85
2019-04-10T11:05:09.094Z,44.67
2019-04-10T11:07:40.544Z,39.55
2019-04-10T11:10:10.666Z,36.75
2019-04-10T11:12:39.995Z,52.95
2019-04-10T11:15:10.123Z,36.15
2019-04-10T11:17:40.437Z,54.85
2019-04-10T11:20:12.681Z,69.50
2019-04-10T11:22:43.368Z,92.92
2019-04-10T11:25:13.388Z,43.08
2019-04-10T11:27:43.187Z,41.88
2019-04-10T11:30:12.681Z,35.23
2019-04-10T11:32:44.343Z,30.90
2019-04-10T11:35:15.557Z,36.40
2019-04-10T11:37:49.295Z,35.80
2019-04-10T11:40:17.974Z,42.38
2019-04-10T11:42:46.931Z,39.33
2019-04-10T11:45:18.611Z,98.33
2019-04-10T11:47:48.252Z,38.58
2019-04-10T11:52:52.561Z,55.92
2019-04-10T11:55:20.993Z,31.20
2019-04-10T11:57:49.619Z,33.92
2019-04-10T12:00:23.822Z,88.95
2019-04-10T12:02:52.867Z,35.33
2019-04-10T12:05:25.219Z,32.10
2019-04-10T12:12:54.223Z,29.25
2019-04-10T12:15:23.916Z,33.78
2019-04-10T12:17:52.618Z,34.05
2019-04-10T12:20:21.245Z,38.25
2019-04-10T12:22:50.742Z,23.90
2019-04-10T12:25:20.774Z,32.53
2019-04-10T12:27:49.498Z,32.33
2019-04-10T12:30:19.382Z,25.62
2019-04-10T12:32:49.305Z,25.60
2019-04-10T12:35:18.014Z,27.37
2019-04-10T12:37:57.286Z,29.63
2019-04-10T12:40:17.321Z,33.60
2019-04-10T12:42:46.322Z,24.98
2019-04-10T12:45:16.536Z,25.85
2019-04-10T12:47:46.025Z,20.27
2019-04-10T12:50:15.035Z,20.80
2019-04-10T12:52:45.089Z,29.60
2019-04-10T12:55:14.536Z,23.10
2019-04-10T12:57:43.970Z,23.35
2019-04-10T13:00:15.971Z,22.65
2019-04-10T13:02:45.534Z,22.58
2019-04-10T13:05:14.435Z,32.17
2019-04-10T13:07:44.151Z,23.12
2019-04-10T13:10:15.079Z,17.98
2019-04-10T13:12:45.255Z,21.90
2019-04-10T13:15:15.091Z,19.52
2019-04-10T13:17:44.506Z,22.80
2019-04-10T13:20:14.344Z,32.60
2019-04-10T13:22:44.327Z,20.27
2019-04-10T13:25:14.457Z,29.25
2019-04-10T13:27:43.754Z,16.27
2019-04-10T13:30:14.732Z,17.95
2019-04-10T13:32:44.464Z,24.52
2019-04-10T13:35:14.434Z,18.90
2019-04-10T13:37:43.705Z,19.87
2019-04-10T13:40:13.167Z,21.73
2019-04-10T13:42:42.311Z,21.93
2019-04-10T13:45:12.951Z,19.40
2019-04-10T13:47:42.841Z,28.27
2019-04-10T13:50:12.683Z,17.12
2019-04-10T13:52:44.604Z,18.85
2019-04-10T13:55:13.427Z,20.50
2019-04-10T13:57:42.375Z,20.60
2019-04-10T14:00:13.402Z,27.30
2019-04-10T14:02:42.061Z,15.85
2019-04-10T14:05:15.674Z,24.00
2019-04-10T14:07:44.679Z,19.00
2019-04-10T14:10:16.045Z,18.30
2019-04-10T14:12:44.586Z,18.32
2019-04-10T14:15:14.003Z,17.00
2019-04-10T14:17:42.570Z,24.00
2019-04-10T14:20:13.093Z,18.23
2019-04-10T14:22:46.097Z,25.37
2019-04-10T14:25:16.436Z,17.45
2019-04-10T14:27:46.483Z,14.95
2019-04-10T14:30:33.427Z,21.27
2019-04-10T14:33:03.287Z,17.37
2019-04-10T14:35:33.584Z,17.92
2019-04-10T14:38:03.045Z,21.62
2019-04-10T14:40:32.700Z,16.85
2019-04-10T14:43:03.533Z,14.35
2019-04-10T14:45:33.713Z,13.22
2019-04-10T14:48:04.153Z,21.62
2019-04-10T14:50:34.978Z,20.92
2019-04-10T14:53:05.560Z,18.20
2019-04-10T14:55:35.566Z,17.57
2019-04-10T14:58:05.523Z,14.98
2019-04-10T15:00:37.019Z,19.00
2019-04-10T15:03:08.514Z,14.75
2019-04-10T15:05:45.420Z,17.57
2019-04-10T15:08:09.439Z,17.80
2019-04-10T15:10:38.483Z,13.95
2019-04-10T15:13:13.647Z,20.88
2019-04-10T15:15:39.004Z,14.83
2019-04-10T15:18:08.921Z,20.85
2019-04-10T15:20:38.127Z,13.70
2019-04-10T15:23:07.883Z,15.20
2019-04-10T15:25:37.516Z,18.60
2019-04-10T15:28:06.903Z,12.68
2019-04-10T15:30:39.012Z,16.40
2019-04-10T15:33:08.475Z,20.20
2019-04-10T15:35:38.352Z,21.65
2019-04-10T15:38:06.992Z,15.43
2019-04-10T15:40:36.577Z,12.20
2019-04-10T15:43:06.534Z,11.63
2019-04-10T15:45:35.778Z,11.78
2019-04-10T15:48:04.906Z,16.45
2019-04-10T15:50:34.699Z,12.75
2019-04-10T15:53:04.093Z,15.05
2019-04-10T15:55:33.936Z,11.70
2019-04-10T15:58:06.532Z,11.10
2019-04-10T16:00:35.429Z,11.70
2019-04-10T16:03:05.614Z,16.55
2019-04-10T16:05:35.056Z,17.00
2019-04-10T16:08:05.923Z,12.55
2019-04-10T16:10:41.316Z,11.63
2019-04-10T16:13:16.525Z,12.43
2019-04-10T16:15:46.991Z,13.03
2019-04-10T16:18:21.042Z,14.38
2019-04-10T16:20:51.336Z,11.57
2019-04-10T16:23:31.361Z,12.95
2019-04-10T16:26:02.902Z,15.18
2019-04-10T16:28:35.931Z,15.30
2019-04-10T16:31:05.435Z,11.90
2019-04-10T16:33:35.750Z,12.05
2019-04-10T16:36:05.683Z,11.40
2019-04-10T16:38:35.034Z,18.32
2019-04-10T16:41:04.871Z,15.08
2019-04-10T16:43:34.386Z,15.80
2019-04-10T16:46:04.913Z,12.88
2019-04-10T16:48:35.822Z,13.93
2019-04-10T16:51:05.051Z,14.93
2019-04-10T16:53:34.121Z,12.45
2019-04-10T16:56:03.631Z,13.40
2019-04-10T16:58:33.912Z,14.98
2019-04-10T17:01:04.930Z,12.53
2019-04-10T17:03:33.905Z,17.80
2019-04-10T17:06:03.962Z,8.70
2019-04-10T17:08:34.064Z,16.50
2019-04-10T17:11:05.028Z,13.15
2019-04-10T17:13:34.951Z,15.83
2019-04-10T17:16:05.068Z,15.45
2019-04-10T17:18:35.059Z,15.53
2019-04-10T17:21:04.772Z,14.95
2019-04-10T17:23:34.474Z,14.40
2019-04-10T17:26:05.104Z,14.05
2019-04-10T17:28:34.548Z,14.93
2019-04-10T17:31:04.571Z,15.03
2019-04-10T17:33:34.108Z,12.50
2019-04-10T17:36:04.338Z,14.35
2019-04-10T17:38:34.894Z,14.20
2019-04-10T17:41:05.194Z,13.50
2019-04-10T17:43:35.063Z,13.53
2019-04-10T17:46:05.340Z,22.93
2019-04-10T17:48:34.935Z,11.20
2019-04-10T17:51:06.150Z,11.48
2019-04-10T17:53:35.737Z,11.15
2019-04-10T17:56:06.195Z,9.88
2019-04-10T17:58:35.873Z,12.15
2019-04-10T18:01:06.624Z,12.82
2019-04-10T18:03:48.557Z,10.78
2019-04-10T18:06:06.885Z,9.90
2019-04-10T18:08:36.777Z,15.25
2019-04-10T18:11:06.001Z,15.60
2019-04-10T18:13:36.337Z,11.22
2019-04-10T18:16:05.573Z,11.18
2019-04-10T18:18:35.865Z,12.80
2019-04-10T18:21:06.589Z,12.55
2019-04-10T18:23:35.660Z,10.98
2019-04-10T18:26:06.723Z,12.63
2019-04-10T18:28:36.495Z,13.85
2019-04-10T18:31:05.908Z,12.10
2019-04-10T18:33:36.340Z,15.28
2019-04-10T18:36:07.041Z,13.18
2019-04-10T18:38:37.584Z,12.07
2019-04-10T18:41:08.592Z,13.58
2019-04-10T18:43:38.264Z,13.62
2019-04-10T18:46:12.819Z,11.20
2019-04-10T18:48:38.893Z,15.25
2019-04-10T18:51:09.905Z,10.03
2019-04-10T18:53:39.361Z,10.90
2019-04-10T18:56:11.109Z,12.82
2019-04-10T18:58:41.871Z,12.70
2019-04-10T19:01:14.262Z,10.55
2019-04-10T19:03:50.469Z,13.50
2019-04-10T19:06:24.914Z,18.82
2019-04-10T19:09:04.719Z,17.23
2019-04-10T19:11:27.577Z,14.20
2019-04-10T19:13:55.318Z,9.20
2019-04-10T19:16:25.490Z,13.80
2019-04-10T19:18:55.279Z,13.45
2019-04-10T19:21:24.430Z,25.25
2019-04-10T19:23:53.199Z,21.77
2019-04-10T19:26:23.261Z,14.95
2019-04-10T19:28:52.790Z,11.60
2019-04-10T19:31:24.634Z,30.55
2019-04-10T19:33:53.277Z,11.43
2019-04-10T19:36:21.835Z,13.32
2019-04-10T19:38:51.747Z,10.25
2019-04-10T19:41:29.101Z,12.73
2019-04-10T19:43:52.665Z,12.63
2019-04-10T19:46:21.917Z,12.03
2019-04-10T19:48:53.160Z,21.20
2019-04-10T19:51:22.032Z,10.45
2019-04-10T19:53:53.395Z,9.23
2019-04-10T19:56:22.787Z,11.57
2019-04-10T19:58:52.394Z,11.80
2019-04-10T20:01:24.131Z,12.10
2019-04-10T20:03:52.469Z,10.48
2019-04-10T20:06:23.546Z,13.28
2019-04-10T20:08:52.447Z,10.53
2019-04-10T20:11:31.877Z,9.80
2019-04-10T20:13:52.581Z,10.18
2019-04-10T20:16:22.767Z,7.00
2019-04-10T20:18:52.819Z,14.55
2019-04-10T20:21:23.823Z,10.45
2019-04-10T20:23:54.397Z,9.90
2019-04-10T20:26:23.560Z,10.40
2019-04-10T20:28:52.729Z,10.75
2019-04-10T20:31:23.595Z,18.73
2019-04-10T20:33:52.756Z,10.90
2019-04-10T20:36:22.791Z,7.92
2019-04-10T20:38:52.671Z,12.10
2019-04-10T20:41:22.530Z,13.45
2019-04-10T20:43:53.297Z,19.02
2019-04-10T20:46:22.508Z,10.38
2019-04-10T20:48:51.582Z,8.58
2019-04-10T20:51:20.853Z,9.00
2019-04-10T20:53:50.532Z,10.05
2019-04-10T20:56:22.209Z,9.50
2019-04-10T20:58:52.649Z,9.13
2019-04-10T21:01:22.598Z,12.80
2019-04-10T21:03:52.390Z,9.03
2019-04-10T21:06:21.655Z,10.10
2019-04-10T21:08:50.943Z,7.78
2019-04-10T21:11:20.633Z,9.55
2019-04-10T21:13:50.912Z,10.82
2019-04-10T21:16:20.263Z,10.38
2019-04-10T21:18:49.425Z,12.03
2019-04-10T21:21:18.678Z,12.03
2019-04-10T21:23:47.325Z,10.93
2019-04-10T21:26:16.401Z,9.15
2019-04-10T21:28:45.755Z,10.20
2019-04-10T21:31:32.799Z,9.65
2019-04-10T21:34:19.737Z,10.18
2019-04-10T21:36:48.984Z,9.73
2019-04-10T21:39:17.610Z,9.15
2019-04-10T21:41:46.725Z,11.05
2019-04-10T21:44:16.106Z,9.63
2019-04-10T21:46:46.659Z,10.40
2019-04-10T21:49:15.630Z,12.20
2019-04-10T21:51:44.862Z,12.00
2019-04-10T21:54:14.129Z,11.45
2019-04-10T21:56:43.662Z,9.90
2019-04-10T21:59:13.113Z,17.00
2019-04-10T22:01:43.501Z,10.63
2019-04-10T22:04:12.122Z,12.88
2019-04-10T22:06:43.119Z,10.13
2019-04-10T22:09:20.625Z,17.80
2019-04-10T22:11:51.130Z,11.18
2019-04-10T22:14:19.753Z,9.95
2019-04-10T22:16:48.490Z,15.20
2019-04-10T22:19:17.280Z,11.68
2019-04-10T22:21:46.443Z,17.10
2019-04-10T22:24:15.841Z,11.12
2019-04-10T22:26:45.185Z,15.28
2019-04-10T22:29:14.349Z,14.55
2019-04-10T22:31:43.865Z,13.05
2019-04-10T22:34:13.641Z,12.75
2019-04-10T22:36:42.919Z,14.43
2019-04-10T22:39:14.616Z,13.62
2019-04-10T22:41:44.276Z,17.32
2019-04-10T22:44:13.872Z,10.82
2019-04-10T22:46:43.232Z,13.55
2019-04-10T22:49:12.491Z,10.98
2019-04-10T22:51:41.800Z,13.18
2019-04-10T22:54:11.812Z,11.43
2019-04-10T22:56:42.295Z,13.35
2019-04-10T22:59:11.858Z,12.98
2019-04-10T23:01:43.227Z,11.15
2019-04-10T23:04:12.710Z,14.50
2019-04-10T23:06:43.264Z,11.40
2019-04-10T23:09:13.778Z,14.93
2019-04-10T23:11:46.217Z,18.50
2019-04-10T23:14:14.940Z,13.45
2019-04-10T23:16:44.866Z,14.60
2019-04-10T23:19:16.083Z,13.15
2019-04-10T23:21:45.578Z,14.28
2019-04-10T23:24:15.748Z,11.30
2019-04-10T23:26:47.134Z,14.63
2019-04-10T23:29:16.921Z,11.78
2019-04-10T23:31:45.902Z,14.93
2019-04-10T23:34:16.612Z,12.37
2019-04-10T23:36:46.494Z,15.25
2019-04-10T23:39:16.336Z,13.60
2019-04-10T23:41:45.999Z,17.67
2019-04-10T23:44:16.421Z,16.90
2019-04-10T23:46:45.488Z,14.87
2019-04-10T23:49:14.875Z,14.75
2019-04-10T23:51:44.034Z,14.58
2019-04-10T23:54:13.674Z,15.55
2019-04-10T23:56:44.777Z,14.47
2019-04-10T23:59:14.939Z,16.25
